You are not logged in, Click here to log in
成都雙流國際機場 / ZUUU 中華人民共和國四川省成都市双流县 機場代碼: CTU
ICAO: ZUUU Country: 中華人民共和國四川省成都市双流县 機場代碼: CTU
Latitude: 30.5675 Longitude: 103.949
Total Arrivals: 45 Total Departures: 39
Latest Arrival: MU5843 (ZPPP-ZUUU)Arthur. Kung Latest Departure: 3U8555 (ZUUU-ZLXY)Arthur. Kung
Scenery:
METAR : ZUUU 110400Z 03005MPS 350V060 9999 BKN023 27/18 Q0998 NOSIG

成都雙流國際機場

You are accessing this site from IP address 34.229.119.29. Virtual Airline. CMS by phpVMS.Website designed by Zumeweb and edited by Theo Bearman.
There is 1 User(s) Online: | Lun Wang | and 15 Guest(s) Online.
All information on this site is for fight simulation purposes only. This site is for flight logging for pilots of Virtual Airline&模擬飛行論壇 FlySim only.